Time;durP1;ratioP1;P1;durP2;ratioP2;P2;SDS_P1;SDS_P2;PMS_P1;PMS_P2;Temp;Humidity;BMP_temperature;BMP_pressure;BME280_temperature;BME280_humidity;BME280_pressure;Samples;Min_cycle;Max_cycle;Signal;HPM_P1;HPM_P2
2021/01/03 00:00:17;;;;;;;4.13;2.13;;;2.90;99.90;;;;;;5073497;28;20199;-60
2021/01/03 00:02:42;;;;;;;3.45;1.65;;;2.90;99.90;;;;;;5086871;28;20743;-60
2021/01/03 00:05:08;;;;;;;2.23;1.00;;;2.90;99.90;;;;;;5086720;28;20191;-60
2021/01/03 00:07:34;;;;;;;1.77;0.30;;;3.00;99.90;;;;;;5088676;28;20183;-60
2021/01/03 00:09:59;;;;;;;4.23;1.50;;;3.00;99.90;;;;;;5089216;28;20187;-62
2021/01/03 00:12:25;;;;;;;1.70;0.20;;;2.90;99.90;;;;;;5091544;28;20180;-61
2021/01/03 00:14:50;;;;;;;1.70;0.20;;;2.90;99.90;;;;;;5094284;28;20267;-61
2021/01/03 00:17:16;;;;;;;1.70;0.20;;;2.90;99.90;;;;;;5086853;28;20187;-61
2021/01/03 00:19:41;;;;;;;1.70;0.20;;;2.90;99.90;;;;;;5076187;28;20185;-60
2021/01/03 00:22:07;;;;;;;1.70;0.20;;;2.90;99.90;;;;;;5084210;28;20561;-60
2021/01/03 00:24:32;;;;;;;1.70;0.27;;;2.90;99.90;;;;;;5080818;28;20195;-61
2021/01/03 00:26:58;;;;;;;1.93;0.70;;;2.90;99.90;;;;;;5078901;28;20189;-61
2021/01/03 00:29:23;;;;;;;1.70;0.20;;;2.80;99.90;;;;;;5086590;28;20176;-60
2021/01/03 00:31:50;;;;;;;1.70;0.20;;;2.90;99.90;;;;;;5081468;28;20211;-61
2021/01/03 00:34:20;;;;;;;1.75;0.20;;;2.90;99.90;;;;;;5076426;28;20191;-61
2021/01/03 00:36:46;;;;;;;3.35;0.82;;;3.00;99.90;;;;;;5086719;28;20173;-61
2021/01/03 00:39:12;;;;;;;3.17;1.20;;;3.00;99.90;;;;;;5074075;28;20253;-60
2021/01/03 00:41:37;;;;;;;4.13;1.50;;;2.90;99.90;;;;;;5078122;28;20470;-61
2021/01/03 00:44:05;;;;;;;1.70;0.20;;;2.90;99.90;;;;;;5082691;28;20461;-61
2021/01/03 00:46:31;;;;;;;2.03;1.23;;;2.90;99.90;;;;;;5069667;28;20218;-61
2021/01/03 00:48:56;;;;;;;1.70;0.20;;;2.90;99.90;;;;;;5082513;28;20267;-60
2021/01/03 00:51:22;;;;;;;1.80;0.50;;;2.90;99.90;;;;;;5082363;28;20500;-60
2021/01/03 00:53:47;;;;;;;1.70;0.20;;;2.90;99.90;;;;;;5074930;28;20204;-61
2021/01/03 00:56:13;;;;;;;1.70;0.20;;;2.90;99.90;;;;;;5078383;28;20227;-61
2021/01/03 00:58:38;;;;;;;1.70;0.20;;;3.00;99.90;;;;;;5082260;28;20182;-62
2021/01/03 01:01:04;;;;;;;1.80;0.53;;;3.00;99.90;;;;;;5076198;28;20283;-61
2021/01/03 01:03:30;;;;;;;2.80;1.73;;;3.00;99.90;;;;;;5077136;28;20212;-60
2021/01/03 01:05:56;;;;;;;1.70;0.20;;;2.90;99.90;;;;;;5077790;28;20732;-60
2021/01/03 01:08:22;;;;;;;2.17;0.43;;;2.90;99.90;;;;;;5074337;28;20196;-61
2021/01/03 01:10:48;;;;;;;1.70;0.20;;;2.90;99.90;;;;;;5084475;28;20912;-61
2021/01/03 01:13:14;;;;;;;2.80;1.30;;;2.90;99.90;;;;;;5067232;28;20184;-60
2021/01/03 01:15:39;;;;;;;1.70;0.20;;;2.90;99.90;;;;;;5076539;28;20181;-60
2021/01/03 01:18:05;;;;;;;2.93;1.10;;;2.90;99.90;;;;;;5080715;28;20180;-61
2021/01/03 01:20:32;;;;;;;1.77;0.40;;;2.90;99.90;;;;;;5077893;28;20183;-61
2021/01/03 01:22:59;;;;;;;2.55;0.60;;;2.80;99.90;;;;;;5076152;28;20184;-61
2021/01/03 01:25:27;;;;;;;1.70;0.20;;;2.80;99.90;;;;;;5084355;28;20191;-61
2021/01/03 01:27:54;;;;;;;3.22;1.33;;;2.90;99.90;;;;;;5069759;28;20181;-61
2021/01/03 01:30:22;;;;;;;2.45;1.05;;;2.90;99.90;;;;;;5081482;28;20192;-61
2021/01/03 01:32:48;;;;;;;1.70;0.20;;;2.80;99.90;;;;;;5072394;28;20234;-61
2021/01/03 01:35:18;;;;;;;1.70;0.20;;;2.80;99.90;;;;;;5064851;28;20205;-61
2021/01/03 01:37:44;;;;;;;2.63;0.85;;;2.90;99.90;;;;;;5073354;28;20187;-61
2021/01/03 01:40:12;;;;;;;1.70;0.20;;;3.00;99.90;;;;;;5081487;28;20659;-61
2021/01/03 01:42:37;;;;;;;2.72;1.48;;;3.00;99.90;;;;;;5070324;28;20219;-60
2021/01/03 01:45:07;;;;;;;2.00;0.50;;;3.10;99.90;;;;;;5082194;28;20260;-61
2021/01/03 01:47:36;;;;;;;1.70;0.20;;;3.10;99.90;;;;;;5078435;28;20184;-61
2021/01/03 01:50:05;;;;;;;1.80;0.60;;;3.10;99.90;;;;;;5076135;28;20271;-61
2021/01/03 01:52:36;;;;;;;4.65;2.25;;;3.10;99.90;;;;;;5082108;28;20212;-61
2021/01/03 01:55:07;;;;;;;4.00;1.80;;;3.00;99.90;;;;;;5076492;28;20188;-61
2021/01/03 01:57:39;;;;;;;1.70;0.20;;;3.00;99.90;;;;;;5074218;28;20272;-60
2021/01/03 02:00:24;;;;;;;1.80;0.55;;;3.00;99.90;;;;;;5076471;28;20192;-61
2021/01/03 02:03:21;;;;;;;1.90;0.75;;;3.00;99.90;;;;;;5081952;28;20196;-61
2021/01/03 02:06:04;;;;;;;2.60;0.88;;;3.00;99.90;;;;;;5065424;28;20188;-60
2021/01/03 02:08:53;;;;;;;2.65;0.95;;;3.10;99.90;;;;;;5074645;28;20272;-61
2021/01/03 02:11:23;;;;;;;1.70;0.20;;;3.10;99.90;;;;;;5082685;28;20695;-61
2021/01/03 02:13:52;;;;;;;1.70;0.20;;;3.20;99.90;;;;;;5071251;28;20196;-60
2021/01/03 02:16:21;;;;;;;1.70;0.20;;;3.10;99.90;;;;;;5075362;28;20272;-61
2021/01/03 02:18:48;;;;;;;1.80;0.52;;;3.10;99.90;;;;;;5077763;28;20268;-61
2021/01/03 02:21:26;;;;;;;1.80;0.38;;;3.00;99.90;;;;;;5069298;28;20290;-61
2021/01/03 02:24:08;;;;;;;3.88;1.02;;;3.00;99.90;;;;;;5087905;28;20209;-61
2021/01/03 02:27:03;;;;;;;1.80;0.40;;;3.10;99.90;;;;;;5076920;28;20235;-61
2021/01/03 02:29:30;;;;;;;1.70;0.20;;;3.10;99.90;;;;;;5050536;28;20183;-61
2021/01/03 02:32:00;;;;;;;2.15;1.33;;;3.00;99.90;;;;;;5071432;28;20196;-61
2021/01/03 02:34:30;;;;;;;1.92;0.77;;;2.90;99.90;;;;;;5074092;28;20678;-61
2021/01/03 02:37:06;;;;;;;1.70;0.30;;;2.80;99.90;;;;;;5069830;28;20314;-61
2021/01/03 02:39:50;;;;;;;1.73;0.30;;;2.80;99.90;;;;;;5073979;28;20233;-61
2021/01/03 02:42:26;;;;;;;1.70;0.30;;;2.80;99.90;;;;;;5063430;28;20831;-61
2021/01/03 02:44:53;;;;;;;1.80;0.30;;;2.80;99.90;;;;;;5088156;28;20198;-61
2021/01/03 02:47:23;;;;;;;1.70;0.20;;;2.80;99.90;;;;;;5068029;28;20587;-60
2021/01/03 02:49:49;;;;;;;1.70;0.20;;;2.90;99.90;;;;;;5068721;28;20639;-61
2021/01/03 02:52:23;;;;;;;1.87;0.47;;;2.90;99.90;;;;;;5082753;28;20290;-61
2021/01/03 02:54:50;;;;;;;1.70;0.20;;;2.90;99.90;;;;;;5076112;28;20192;-61
2021/01/03 02:57:15;;;;;;;1.70;0.20;;;2.90;99.90;;;;;;5078925;28;20198;-61
2021/01/03 02:59:41;;;;;;;1.70;0.27;;;2.90;99.90;;;;;;5078902;28;20710;-61
2021/01/03 03:02:06;;;;;;;1.70;0.20;;;2.90;99.90;;;;;;5070368;28;20204;-61
2021/01/03 03:04:32;;;;;;;2.43;0.77;;;2.90;99.90;;;;;;5080062;28;20188;-61
2021/01/03 03:06:57;;;;;;;1.70;0.20;;;2.90;99.90;;;;;;5073884;28;20678;-61
2021/01/03 03:09:23;;;;;;;1.70;0.20;;;3.00;99.90;;;;;;5073261;28;20200;-61
2021/01/03 03:11:48;;;;;;;1.70;0.20;;;2.90;99.90;;;;;;5074873;28;20684;-61
2021/01/03 03:14:14;;;;;;;1.70;0.20;;;2.90;99.90;;;;;;5091143;28;20245;-62
2021/01/03 03:16:40;;;;;;;1.70;0.20;;;3.00;99.90;;;;;;5094802;28;20188;-61
2021/01/03 03:19:06;;;;;;;1.80;0.50;;;3.00;99.90;;;;;;5079401;28;20191;-62
2021/01/03 03:21:32;;;;;;;1.90;0.30;;;3.00;99.90;;;;;;5071489;28;20201;-60
2021/01/03 03:23:57;;;;;;;1.80;0.40;;;2.90;99.90;;;;;;5076686;28;20448;-59
2021/01/03 03:26:23;;;;;;;1.70;0.20;;;2.90;99.90;;;;;;5080279;28;20190;-62
2021/01/03 03:28:48;;;;;;;1.70;0.20;;;2.80;99.90;;;;;;5075201;28;20188;-61
2021/01/03 03:31:14;;;;;;;1.93;0.67;;;2.90;99.90;;;;;;5070590;28;20220;-60
2021/01/03 03:33:39;;;;;;;1.80;0.47;;;2.90;99.90;;;;;;5083178;28;20180;-61
2021/01/03 03:36:05;;;;;;;1.70;0.20;;;2.90;99.90;;;;;;5068192;28;20268;-61
2021/01/03 03:38:30;;;;;;;1.70;0.20;;;2.90;99.90;;;;;;5079668;28;20205;-62
2021/01/03 03:40:56;;;;;;;1.70;0.20;;;2.90;99.90;;;;;;5075529;28;20215;-61
2021/01/03 03:43:21;;;;;;;1.70;0.20;;;2.90;99.90;;;;;;5071316;28;20195;-62
2021/01/03 03:45:47;;;;;;;1.90;0.73;;;3.00;99.90;;;;;;5071853;28;20199;-62
2021/01/03 03:48:12;;;;;;;1.73;0.20;;;3.00;99.90;;;;;;5079262;28;20238;-59
2021/01/03 03:50:38;;;;;;;3.20;1.07;;;2.90;99.90;;;;;;5064878;28;20223;-59
2021/01/03 03:53:03;;;;;;;1.70;0.20;;;2.90;99.90;;;;;;5083347;28;20185;-62
2021/01/03 03:55:29;;;;;;;1.80;0.40;;;2.90;99.90;;;;;;5073126;28;20172;-59
2021/01/03 03:57:54;;;;;;;1.70;0.20;;;3.00;99.90;;;;;;5074707;28;20184;-62
2021/01/03 04:00:23;;;;;;;1.90;0.87;;;3.00;99.90;;;;;;5077995;28;20180;-62
2021/01/03 04:02:49;;;;;;;1.70;0.20;;;3.00;99.90;;;;;;5077719;28;20252;-59
2021/01/03 04:05:18;;;;;;;1.70;0.20;;;3.00;99.90;;;;;;5076639;28;20184;-61
2021/01/03 04:07:44;;;;;;;1.70;0.20;;;3.00;99.90;;;;;;5082175;28;20175;-60
2021/01/03 04:10:11;;;;;;;1.70;0.20;;;3.10;99.90;;;;;;5066033;28;20172;-59
2021/01/03 04:12:36;;;;;;;1.77;0.45;;;3.20;99.90;;;;;;5069123;28;20240;-61
2021/01/03 04:15:08;;;;;;;1.90;0.53;;;3.20;99.90;;;;;;5076974;28;20764;-59
2021/01/03 04:17:33;;;;;;;1.70;0.20;;;3.10;99.90;;;;;;5072871;28;20180;-60
2021/01/03 04:19:59;;;;;;;1.70;0.20;;;3.10;99.90;;;;;;5081341;28;20284;-59
2021/01/03 04:22:28;;;;;;;1.70;0.20;;;3.10;99.90;;;;;;5081803;28;20223;-59
2021/01/03 04:24:53;;;;;;;2.00;0.95;;;3.10;99.90;;;;;;5072491;28;20208;-59
2021/01/03 04:27:19;;;;;;;3.60;0.80;;;3.10;99.90;;;;;;5076548;28;20261;-60
2021/01/03 04:29:44;;;;;;;1.70;0.30;;;3.10;99.90;;;;;;5074929;28;20206;-60
2021/01/03 04:32:11;;;;;;;1.70;0.30;;;3.00;99.90;;;;;;5071072;28;20689;-61
2021/01/03 04:34:38;;;;;;;1.73;0.20;;;3.00;99.90;;;;;;5071334;28;20204;-61
2021/01/03 04:37:04;;;;;;;1.80;0.30;;;3.10;99.90;;;;;;5080257;28;20257;-61
2021/01/03 04:39:30;;;;;;;1.70;0.20;;;3.20;99.90;;;;;;5073771;28;20227;-61
2021/01/03 04:42:02;;;;;;;1.80;0.45;;;3.20;99.90;;;;;;5100479;28;20236;-65
2021/01/03 04:44:54;;;;;;;1.80;0.47;;;3.20;99.90;;;;;;5077539;28;20180;-61
2021/01/03 04:47:31;;;;;;;1.75;0.45;;;3.10;99.90;;;;;;5069665;28;20189;-61
2021/01/03 04:50:06;;;;;;;1.70;0.20;;;3.20;99.90;;;;;;5083962;28;20193;-60
2021/01/03 04:53:11;;;;;;;1.73;0.20;;;3.10;99.90;;;;;;5087414;28;20222;-60
2021/01/03 04:55:45;;;;;;;2.45;1.42;;;3.20;99.90;;;;;;5073463;28;20191;-61
2021/01/03 04:58:13;;;;;;;1.70;0.20;;;3.20;99.90;;;;;;5076970;28;20279;-61
2021/01/03 05:00:59;;;;;;;1.70;0.20;;;3.20;99.90;;;;;;5077034;28;20203;-62
2021/01/03 05:03:39;;;;;;;1.80;0.30;;;3.30;99.90;;;;;;5069727;28;20263;-61
2021/01/03 05:06:16;;;;;;;1.73;0.20;;;3.20;99.90;;;;;;5077395;28;20292;-61
2021/01/03 05:08:47;;;;;;;1.70;0.20;;;3.20;99.90;;;;;;5077831;28;20265;-61
2021/01/03 05:11:20;;;;;;;1.90;0.40;;;3.20;99.90;;;;;;5082061;28;20200;-61
2021/01/03 05:14:16;;;;;;;1.70;0.20;;;3.20;99.90;;;;;;5070363;28;20181;-61
2021/01/03 05:16:41;;;;;;;1.70;0.20;;;3.10;99.90;;;;;;5074049;28;20188;-61
2021/01/03 05:19:07;;;;;;;1.70;0.20;;;3.10;99.90;;;;;;5074717;28;20255;-61
2021/01/03 05:22:01;;;;;;;1.70;0.20;;;3.20;99.90;;;;;;5072781;28;20201;-61
2021/01/03 05:24:29;;;;;;;3.45;1.48;;;3.20;99.90;;;;;;5053311;28;20208;-60
2021/01/03 05:27:10;;;;;;;1.70;0.20;;;3.30;99.90;;;;;;5085897;28;20179;-60
2021/01/03 05:29:35;;;;;;;1.70;0.20;;;3.30;99.90;;;;;;5075258;28;20176;-61
2021/01/03 05:32:03;;;;;;;1.70;0.20;;;3.30;99.90;;;;;;5077575;28;20208;-61
2021/01/03 05:34:38;;;;;;;1.70;0.20;;;3.30;99.90;;;;;;5076256;28;20259;-61
2021/01/03 05:37:20;;;;;;;1.73;0.20;;;3.30;99.90;;;;;;5076758;28;20654;-61
2021/01/03 05:39:47;;;;;;;1.70;0.20;;;3.30;99.90;;;;;;5079624;28;20172;-61
2021/01/03 05:42:18;;;;;;;1.70;0.20;;;3.30;99.90;;;;;;5080658;28;20216;-61
2021/01/03 05:44:56;;;;;;;1.70;0.20;;;3.40;99.90;;;;;;5071143;28;20243;-61
2021/01/03 05:47:36;;;;;;;2.15;1.10;;;3.40;99.90;;;;;;5072939;28;20180;-61
2021/01/03 05:50:11;;;;;;;1.70;0.20;;;3.40;99.90;;;;;;5080666;28;20220;-61
2021/01/03 05:52:47;;;;;;;1.70;0.20;;;3.50;99.90;;;;;;5069932;28;20285;-59
2021/01/03 05:55:20;;;;;;;1.75;0.30;;;3.50;99.90;;;;;;5075498;28;20183;-62
2021/01/03 05:57:46;;;;;;;1.70;0.20;;;3.50;99.90;;;;;;5099610;28;20169;-61
2021/01/03 06:00:23;;;;;;;1.70;0.20;;;3.50;99.90;;;;;;5100213;28;20176;-63
2021/01/03 06:02:49;;;;;;;1.70;0.20;;;3.40;99.90;;;;;;5093713;28;20200;-62
2021/01/03 06:05:21;;;;;;;1.70;0.20;;;3.30;99.90;;;;;;5095001;28;20207;-62
2021/01/03 06:08:10;;;;;;;2.97;0.57;;;3.40;99.90;;;;;;5094077;28;20442;-62
2021/01/03 06:10:38;;;;;;;1.70;0.20;;;3.30;99.90;;;;;;5096107;28;20188;-62
2021/01/03 06:13:07;;;;;;;1.70;0.20;;;3.30;99.90;;;;;;5102452;28;20161;-62
2021/01/03 06:15:37;;;;;;;1.70;0.20;;;3.30;99.90;;;;;;5103287;28;20180;-62
2021/01/03 06:18:04;;;;;;;2.28;0.63;;;3.30;99.90;;;;;;5089497;28;20232;-62
2021/01/03 06:20:31;;;;;;;1.73;0.20;;;3.30;99.90;;;;;;5086449;28;20263;-60
2021/01/03 06:23:08;;;;;;;1.90;0.57;;;3.30;99.90;;;;;;5086132;28;20220;-62
2021/01/03 06:25:52;;;;;;;1.70;0.20;;;3.30;99.90;;;;;;5072153;28;20180;-61
2021/01/03 06:28:17;;;;;;;1.70;0.30;;;3.30;99.90;;;;;;5064535;28;20185;-61
2021/01/03 06:31:10;;;;;;;1.80;0.60;;;3.30;99.90;;;;;;5079131;28;20223;-61
2021/01/03 06:34:06;;;;;;;1.98;0.55;;;3.30;99.90;;;;;;5073043;28;20635;-61
2021/01/03 06:36:53;;;;;;;1.90;0.50;;;3.20;99.90;;;;;;5065665;28;20212;-61
2021/01/03 06:39:45;;;;;;;1.70;0.20;;;3.20;99.90;;;;;;5069457;28;20184;-61
2021/01/03 06:42:44;;;;;;;2.13;0.90;;;3.20;99.90;;;;;;5080015;28;20736;-61
2021/01/03 06:45:28;;;;;;;1.80;0.38;;;3.30;99.90;;;;;;5081925;28;20211;-61
2021/01/03 06:48:16;;;;;;;1.70;0.20;;;3.30;99.90;;;;;;5069556;28;20184;-61
2021/01/03 06:50:59;;;;;;;1.73;0.40;;;3.20;99.90;;;;;;5079597;28;20211;-61
2021/01/03 06:54:03;;;;;;;1.73;0.20;;;3.30;99.90;;;;;;5075214;28;20172;-61
2021/01/03 06:56:47;;;;;;;1.80;0.40;;;3.40;99.90;;;;;;5079783;28;20179;-61
2021/01/03 06:59:57;;;;;;;1.70;0.20;;;3.30;99.90;;;;;;5083363;28;20232;-62
2021/01/03 07:02:23;;;;;;;1.70;0.20;;;3.30;99.90;;;;;;5070656;28;20244;-61
2021/01/03 07:04:49;;;;;;;2.10;0.50;;;3.40;99.90;;;;;;5080893;28;20185;-61
2021/01/03 07:07:28;;;;;;;2.27;1.13;;;3.40;99.90;;;;;;5069475;28;20692;-61
2021/01/03 07:09:56;;;;;;;2.15;1.10;;;3.30;99.90;;;;;;5072890;28;20469;-61
2021/01/03 07:12:40;;;;;;;2.00;1.00;;;3.30;99.90;;;;;;5085440;28;20223;-61
2021/01/03 07:15:34;;;;;;;1.70;0.20;;;3.30;99.90;;;;;;5076631;28;20176;-61
2021/01/03 07:18:09;;;;;;;1.70;0.20;;;3.30;99.90;;;;;;5070702;28;20177;-61
2021/01/03 07:20:55;;;;;;;1.70;0.20;;;3.40;99.90;;;;;;5078453;28;20187;-61
2021/01/03 07:23:34;;;;;;;2.08;1.05;;;3.40;99.90;;;;;;5075220;28;20183;-61
2021/01/03 07:26:31;;;;;;;2.22;0.80;;;3.40;99.90;;;;;;5066319;28;20678;-61
2021/01/03 07:28:59;;;;;;;2.50;0.95;;;3.50;99.90;;;;;;5072112;28;20544;-61
2021/01/03 07:31:47;;;;;;;2.35;0.95;;;3.50;99.90;;;;;;5078335;28;20228;-61
2021/01/03 07:34:30;;;;;;;1.75;0.45;;;3.40;99.90;;;;;;5076779;28;20349;-61
2021/01/03 07:37:19;;;;;;;2.03;1.00;;;3.40;99.90;;;;;;5067656;28;20181;-60
2021/01/03 07:40:14;;;;;;;2.60;1.10;;;3.30;99.90;;;;;;5073128;28;20177;-60
2021/01/03 07:42:46;;;;;;;2.10;0.88;;;3.30;99.90;;;;;;5075356;28;20295;-61
2021/01/03 07:45:11;;;;;;;1.70;0.20;;;3.30;99.90;;;;;;5074323;28;20191;-63
2021/01/03 07:47:40;;;;;;;1.80;0.20;;;3.40;99.90;;;;;;5072127;28;20192;-59
2021/01/03 07:50:32;;;;;;;1.70;0.20;;;3.40;99.90;;;;;;5088372;28;20187;-59
2021/01/03 07:53:25;;;;;;;1.73;0.32;;;3.30;99.90;;;;;;5071932;28;20777;-58
2021/01/03 07:55:51;;;;;;;2.65;0.80;;;3.40;99.90;;;;;;5064848;28;20181;-58
2021/01/03 07:58:19;;;;;;;3.25;2.67;;;3.40;99.90;;;;;;5083786;28;20188;-58
2021/01/03 08:00:51;;;;;;;1.70;0.20;;;3.40;99.90;;;;;;5070495;28;20230;-58
2021/01/03 08:03:20;;;;;;;1.70;0.20;;;3.50;99.90;;;;;;5072222;28;20212;-58
2021/01/03 08:05:46;;;;;;;1.90;0.40;;;3.50;99.90;;;;;;5081435;28;20189;-59
2021/01/03 08:08:27;;;;;;;2.33;1.13;;;3.50;99.90;;;;;;5074680;28;20596;-58
2021/01/03 08:11:09;;;;;;;1.85;0.43;;;3.50;99.90;;;;;;5064385;28;20672;-61
2021/01/03 08:13:40;;;;;;;1.70;0.20;;;3.50;99.90;;;;;;5072641;28;20630;-59
2021/01/03 08:16:06;;;;;;;1.73;0.20;;;3.50;99.90;;;;;;5077196;28;20183;-59
2021/01/03 08:18:38;;;;;;;1.70;0.20;;;3.50;99.90;;;;;;5065499;28;20185;-59
2021/01/03 08:21:06;;;;;;;1.70;0.20;;;3.50;99.90;;;;;;5069955;28;20709;-59
2021/01/03 08:23:34;;;;;;;1.75;0.20;;;3.60;99.90;;;;;;5078905;28;20545;-59
2021/01/03 08:26:26;;;;;;;1.70;0.20;;;3.60;99.90;;;;;;5075713;28;20195;-59
2021/01/03 08:29:06;;;;;;;3.03;1.40;;;3.60;99.90;;;;;;5074692;28;20310;-59
2021/01/03 08:31:32;;;;;;;1.70;0.20;;;3.50;99.90;;;;;;5079332;28;20591;-59
2021/01/03 08:33:59;;;;;;;1.70;0.30;;;3.50;99.90;;;;;;5074265;28;20551;-59
2021/01/03 08:36:29;;;;;;;2.30;0.82;;;3.50;99.90;;;;;;5081630;28;20188;-60
2021/01/03 08:39:03;;;;;;;2.88;0.40;;;3.50;99.90;;;;;;5086629;28;20602;-60
2021/01/03 08:41:32;;;;;;;1.75;0.30;;;3.40;99.90;;;;;;5068609;28;20216;-60
2021/01/03 08:43:58;;;;;;;1.98;0.60;;;3.40;99.90;;;;;;5074669;28;20188;-60
2021/01/03 08:46:30;;;;;;;5.77;3.53;;;3.40;99.90;;;;;;5078294;28;20543;-60
2021/01/03 08:49:07;;;;;;;1.70;0.30;;;3.40;99.90;;;;;;5074140;28;20195;-58
2021/01/03 08:51:34;;;;;;;1.70;0.20;;;3.50;99.90;;;;;;5098476;28;20243;-58
2021/01/03 08:54:06;;;;;;;4.45;1.52;;;3.50;99.90;;;;;;5090780;28;20180;-59
2021/01/03 08:56:36;;;;;;;3.55;2.25;;;3.50;99.90;;;;;;5071875;28;20302;-60
2021/01/03 08:59:02;;;;;;;1.70;0.30;;;3.50;99.90;;;;;;5077202;28;20248;-59
2021/01/03 09:01:33;;;;;;;1.90;0.50;;;3.60;99.90;;;;;;5088557;28;20576;-59
2021/01/03 09:04:04;;;;;;;1.70;0.20;;;3.70;99.90;;;;;;5069860;28;20184;-58
2021/01/03 09:06:31;;;;;;;1.90;0.60;;;3.70;99.90;;;;;;5082338;28;20283;-59
2021/01/03 09:09:06;;;;;;;1.70;0.20;;;3.80;99.90;;;;;;5074636;28;20654;-59
2021/01/03 09:11:34;;;;;;;1.70;0.20;;;3.70;99.90;;;;;;5070008;28;20216;-58
2021/01/03 09:14:20;;;;;;;1.70;0.20;;;3.80;99.90;;;;;;5074191;28;20548;-60
2021/01/03 09:17:14;;;;;;;2.10;0.63;;;3.90;99.90;;;;;;5084119;28;20243;-61
2021/01/03 09:19:57;;;;;;;1.70;0.20;;;3.90;99.90;;;;;;5092792;28;20180;-58
2021/01/03 09:22:34;;;;;;;4.53;1.65;;;3.90;99.90;;;;;;5073609;28;20223;-58
2021/01/03 09:25:06;;;;;;;5.68;1.10;;;3.90;99.90;;;;;;5084531;28;20588;-59
2021/01/03 09:27:34;;;;;;;1.70;0.20;;;3.90;99.90;;;;;;5082033;28;20180;-59
2021/01/03 09:30:23;;;;;;;1.70;0.20;;;3.90;99.90;;;;;;5067323;28;20196;-59
2021/01/03 09:33:02;;;;;;;1.70;0.20;;;3.90;99.90;;;;;;5073175;28;20204;-59
2021/01/03 09:35:27;;;;;;;1.80;0.40;;;3.80;99.90;;;;;;5076903;28;20194;-58
2021/01/03 09:38:42;;;;;;;1.77;0.30;;;3.80;99.90;;;;;;5072538;28;20185;-59
2021/01/03 09:41:23;;;;;;;1.70;0.20;;;4.00;99.90;;;;;;5061779;28;20220;-58
2021/01/03 09:44:20;;;;;;;1.70;0.30;;;3.90;99.90;;;;;;5082603;28;20197;-59
2021/01/03 09:47:04;;;;;;;1.80;0.40;;;4.00;99.90;;;;;;5083789;28;20234;-58
2021/01/03 09:49:39;;;;;;;1.80;0.35;;;4.10;99.90;;;;;;5069363;28;20596;-58
2021/01/03 09:52:24;;;;;;;1.70;0.20;;;4.00;99.90;;;;;;5068220;28;20243;-59
2021/01/03 09:55:07;;;;;;;2.63;1.80;;;4.00;99.90;;;;;;5077386;28;20789;-59
2021/01/03 09:57:48;;;;;;;1.70;0.20;;;4.10;99.90;;;;;;5077594;28;20197;-59
2021/01/03 10:00:16;;;;;;;1.80;0.38;;;4.10;99.90;;;;;;5069784;28;20234;-59
2021/01/03 10:02:43;;;;;;;5.10;2.65;;;4.00;99.90;;;;;;5074567;28;20612;-59
2021/01/03 10:05:25;;;;;;;1.70;0.20;;;4.00;99.90;;;;;;5076267;28;20187;-59
2021/01/03 10:07:58;;;;;;;1.70;0.20;;;4.00;99.90;;;;;;5072104;28;20192;-59
2021/01/03 10:10:47;;;;;;;1.73;0.20;;;4.10;99.90;;;;;;5071189;28;20188;-59
2021/01/03 10:13:14;;;;;;;1.73;0.20;;;4.10;99.90;;;;;;5069050;28;20191;-59
2021/01/03 10:15:40;;;;;;;1.90;0.85;;;4.10;99.90;;;;;;5079137;28;20717;-59
2021/01/03 10:18:10;;;;;;;3.85;1.95;;;4.00;99.90;;;;;;5078926;28;20240;-59
2021/01/03 10:20:38;;;;;;;1.70;0.20;;;4.00;99.90;;;;;;5078383;28;20172;-59
2021/01/03 10:23:05;;;;;;;4.18;2.70;;;4.10;99.90;;;;;;5071439;28;20193;-58
2021/01/03 10:25:31;;;;;;;5.70;3.53;;;4.00;99.90;;;;;;5080736;28;20176;-59
2021/01/03 10:28:07;;;;;;;1.70;0.40;;;4.00;99.90;;;;;;5082476;28;20688;-59
2021/01/03 10:30:34;;;;;;;1.73;0.30;;;4.00;99.90;;;;;;5072094;28;20203;-59
2021/01/03 10:32:59;;;;;;;2.45;0.82;;;4.00;99.90;;;;;;5071936;28;20193;-59
2021/01/03 10:35:25;;;;;;;8.60;3.43;;;4.10;99.90;;;;;;5084379;28;20204;-60
2021/01/03 10:37:51;;;;;;;1.70;0.20;;;4.00;99.90;;;;;;5065965;28;20193;-59
2021/01/03 10:40:17;;;;;;;1.77;0.37;;;4.10;99.90;;;;;;5082188;28;20180;-58
2021/01/03 10:42:43;;;;;;;3.67;2.10;;;4.10;99.90;;;;;;5076184;28;20253;-58
2021/01/03 10:45:09;;;;;;;1.70;0.30;;;4.10;99.90;;;;;;5073699;28;20645;-59
2021/01/03 10:47:35;;;;;;;1.73;0.20;;;4.20;99.90;;;;;;5083397;28;20195;-58
2021/01/03 10:50:00;;;;;;;1.90;0.40;;;4.10;99.90;;;;;;5071962;28;20188;-59
2021/01/03 10:52:26;;;;;;;1.70;0.20;;;4.10;99.90;;;;;;5073231;28;20203;-59
2021/01/03 10:54:51;;;;;;;2.70;1.27;;;4.20;99.90;;;;;;5080304;28;20184;-59
2021/01/03 10:57:16;;;;;;;1.80;0.40;;;4.20;99.90;;;;;;5069058;28;20703;-59
2021/01/03 10:59:42;;;;;;;1.70;0.20;;;4.20;99.90;;;;;;5072296;28;20184;-59
2021/01/03 11:02:07;;;;;;;1.70;0.20;;;4.20;99.90;;;;;;5084792;28;20426;-59
2021/01/03 11:04:33;;;;;;;2.17;0.90;;;4.30;99.90;;;;;;5070590;28;20188;-59
2021/01/03 11:07:01;;;;;;;1.70;0.30;;;4.20;99.90;;;;;;5080525;28;20185;-59
2021/01/03 11:09:29;;;;;;;3.85;2.15;;;4.20;99.90;;;;;;5075789;28;20185;-59
2021/01/03 11:12:06;;;;;;;1.77;0.30;;;4.20;99.90;;;;;;5063597;28;20234;-62
2021/01/03 11:14:32;;;;;;;3.95;0.80;;;4.10;99.90;;;;;;5071605;28;20192;-59
2021/01/03 11:16:58;;;;;;;1.80;0.40;;;4.20;99.90;;;;;;5075959;28;20226;-59
2021/01/03 11:19:24;;;;;;;1.80;0.20;;;4.10;99.90;;;;;;5072218;28;20190;-59
2021/01/03 11:22:00;;;;;;;1.70;0.20;;;4.10;99.90;;;;;;5075656;28;20212;-59
2021/01/03 11:24:26;;;;;;;1.70;0.20;;;4.10;99.90;;;;;;5079311;28;20187;-59
2021/01/03 11:26:52;;;;;;;1.90;0.50;;;4.10;99.90;;;;;;5070650;28;20203;-59
2021/01/03 11:29:22;;;;;;;2.85;1.25;;;4.10;99.90;;;;;;5082704;28;20185;-59
2021/01/03 11:31:50;;;;;;;3.28;1.52;;;4.10;99.90;;;;;;5065538;28;20216;-59
2021/01/03 11:34:18;;;;;;;1.70;0.20;;;4.10;99.90;;;;;;5071570;28;20176;-58
2021/01/03 11:37:00;;;;;;;1.70;0.20;;;4.10;99.90;;;;;;5081676;28;20181;-59
2021/01/03 11:39:29;;;;;;;1.80;0.40;;;4.10;99.90;;;;;;5089717;28;20654;-59
2021/01/03 11:41:57;;;;;;;1.70;0.20;;;4.10;99.90;;;;;;5074179;28;20598;-59
2021/01/03 11:44:24;;;;;;;1.70;0.20;;;4.10;99.90;;;;;;5073976;28;20187;-59
2021/01/03 11:46:56;;;;;;;2.30;1.00;;;4.10;99.90;;;;;;5071801;28;20193;-59
2021/01/03 11:49:21;;;;;;;1.70;0.20;;;4.10;99.90;;;;;;5069152;28;20496;-58
2021/01/03 11:51:50;;;;;;;1.70;0.20;;;4.10;99.90;;;;;;5080752;28;20208;-59
2021/01/03 11:54:16;;;;;;;1.90;0.52;;;4.20;99.90;;;;;;5077799;28;20188;-59
2021/01/03 11:56:42;;;;;;;1.70;0.20;;;4.10;99.90;;;;;;5069036;28;20272;-59
2021/01/03 11:59:07;;;;;;;1.70;0.20;;;4.10;99.90;;;;;;5077467;28;20207;-59
2021/01/03 12:01:33;;;;;;;1.70;0.20;;;4.10;99.90;;;;;;5073269;28;20607;-59
2021/01/03 12:03:58;;;;;;;2.87;1.77;;;4.20;99.90;;;;;;5078534;28;20208;-59
2021/01/03 12:06:24;;;;;;;7.07;4.60;;;4.20;99.90;;;;;;5080885;28;20184;-59
2021/01/03 12:08:51;;;;;;;1.70;0.20;;;4.20;99.90;;;;;;5076553;28;20208;-59
2021/01/03 12:11:22;;;;;;;1.80;0.47;;;4.30;99.90;;;;;;5071204;28;20471;-59
2021/01/03 12:13:55;;;;;;;3.08;2.40;;;4.30;99.90;;;;;;5085927;28;20266;-58
2021/01/03 12:16:24;;;;;;;1.70;0.30;;;4.20;99.90;;;;;;5078409;28;20196;-59
2021/01/03 12:18:50;;;;;;;2.42;0.55;;;4.20;99.90;;;;;;5078101;28;20537;-59
2021/01/03 12:21:24;;;;;;;2.40;0.43;;;4.20;99.90;;;;;;5076692;28;20485;-59
2021/01/03 12:23:50;;;;;;;1.70;0.20;;;4.20;99.90;;;;;;5081246;28;20192;-58
2021/01/03 12:26:15;;;;;;;1.70;0.20;;;4.20;99.90;;;;;;5075807;28;20188;-59
2021/01/03 12:28:41;;;;;;;1.70;0.30;;;4.30;99.90;;;;;;5069162;28;20439;-60
2021/01/03 12:31:06;;;;;;;2.87;1.03;;;4.40;99.90;;;;;;5068807;28;20763;-59
2021/01/03 12:33:32;;;;;;;1.70;0.20;;;4.40;99.90;;;;;;5070852;28;20196;-59
2021/01/03 12:35:57;;;;;;;1.80;0.40;;;4.30;99.90;;;;;;5076398;28;20714;-59
2021/01/03 12:38:23;;;;;;;1.70;0.20;;;4.30;99.90;;;;;;5075476;28;20180;-59
2021/01/03 12:40:48;;;;;;;2.10;0.97;;;4.20;99.90;;;;;;5079020;28;20211;-59
2021/01/03 12:43:14;;;;;;;1.70;0.30;;;4.10;99.90;;;;;;5080268;28;20195;-59
2021/01/03 12:45:39;;;;;;;5.70;0.47;;;4.10;99.90;;;;;;5067739;28;20188;-59
2021/01/03 12:48:05;;;;;;;1.70;0.20;;;4.10;99.90;;;;;;5072098;28;20190;-59
2021/01/03 12:50:31;;;;;;;2.13;1.35;;;4.00;99.90;;;;;;5069369;28;20280;-59
2021/01/03 12:52:56;;;;;;;1.73;0.23;;;4.10;99.90;;;;;;5074524;28;20200;-59
2021/01/03 12:55:22;;;;;;;1.70;0.20;;;4.00;99.90;;;;;;5072200;28;20234;-59
2021/01/03 12:57:47;;;;;;;1.70;0.20;;;4.00;99.90;;;;;;5070203;28;20181;-59
2021/01/03 13:00:14;;;;;;;2.77;2.33;;;4.10;99.90;;;;;;5070941;28;20189;-60
2021/01/03 13:02:39;;;;;;;1.75;0.30;;;4.10;99.90;;;;;;5086919;28;20205;-59
2021/01/03 13:05:05;;;;;;;2.53;1.27;;;4.10;99.90;;;;;;5078453;28;20193;-59
2021/01/03 13:07:31;;;;;;;1.80;0.20;;;4.20;99.90;;;;;;5086024;28;20196;-59
2021/01/03 13:09:56;;;;;;;5.97;2.77;;;4.20;99.90;;;;;;5077895;28;20192;-59
2021/01/03 13:12:22;;;;;;;1.70;0.20;;;4.10;99.90;;;;;;5073918;28;20227;-58
2021/01/03 13:14:47;;;;;;;1.70;0.20;;;4.00;99.90;;;;;;5078765;28;20200;-59
2021/01/03 13:17:13;;;;;;;1.70;0.20;;;4.00;99.90;;;;;;5071805;28;20187;-59
2021/01/03 13:19:38;;;;;;;1.70;0.20;;;4.00;99.90;;;;;;5073188;28;20501;-59